Time;durP1;ratioP1;P1;durP2;ratioP2;P2;SDS_P1;SDS_P2;PMS_P1;PMS_P2;Temp;Humidity;BMP_temperature;BMP_pressure;BME280_temperature;BME280_humidity;BME280_pressure;Samples;Min_cycle;Max_cycle;Signal;HPM_P1;HPM_P2
2024/01/31 00:01:53;;;;;;;4.35;3.25;;;;;;;;;;10166139;29;20096;-74
2024/01/31 00:06:56;;;;;;;2.90;2.60;;;;;;;;;;10156502;29;20056;-75
2024/01/31 00:12:01;;;;;;;3.08;2.33;;;;;;;;;;10158451;29;20056;-75
2024/01/31 00:17:04;;;;;;;4.70;2.08;;;;;;;;;;10156364;29;20107;-75
2024/01/31 00:22:08;;;;;;;2.40;2.03;;;;;;;;;;10161251;29;20159;-75
2024/01/31 00:27:13;;;;;;;2.33;1.65;;;;;;;;;;10156547;29;20052;-75
2024/01/31 00:32:16;;;;;;;2.63;1.73;;;;;;;;;;10160041;29;20056;-76
2024/01/31 00:37:19;;;;;;;1.90;1.27;;;;;;;;;;10160587;29;20223;-75
2024/01/31 00:42:24;;;;;;;2.08;1.70;;;;;;;;;;10158790;29;20116;-76
2024/01/31 00:47:27;;;;;;;2.72;1.83;;;;;;;;;;10161831;29;20150;-75
2024/01/31 00:52:31;;;;;;;1.50;1.35;;;;;;;;;;10154401;29;20057;-76
2024/01/31 00:57:35;;;;;;;2.50;1.67;;;;;;;;;;10158860;29;20127;-75
2024/01/31 01:02:40;;;;;;;2.75;1.77;;;;;;;;;;10158032;29;20532;-75
2024/01/31 01:07:45;;;;;;;2.95;1.65;;;;;;;;;;10160354;29;20052;-75
2024/01/31 01:12:50;;;;;;;2.67;1.73;;;;;;;;;;10155100;29;20056;-76
2024/01/31 01:17:53;;;;;;;3.33;2.20;;;;;;;;;;10167316;29;20047;-76
2024/01/31 01:22:57;;;;;;;3.58;2.15;;;;;;;;;;10165700;29;20056;-75
2024/01/31 01:28:01;;;;;;;3.53;2.10;;;;;;;;;;10165102;29;20190;-75
2024/01/31 01:33:05;;;;;;;2.28;1.80;;;;;;;;;;10171419;29;20511;-76
2024/01/31 01:38:08;;;;;;;2.33;1.60;;;;;;;;;;10170192;29;20107;-76
2024/01/31 01:43:18;;;;;;;2.35;1.77;;;;;;;;;;10167972;29;20060;-75
2024/01/31 01:48:22;;;;;;;2.88;1.45;;;;;;;;;;10169998;29;20754;-75
2024/01/31 01:53:25;;;;;;;1.88;1.02;;;;;;;;;;10166212;29;20044;-75
2024/01/31 01:58:31;;;;;;;0.77;0.75;;;;;;;;;;10163486;29;20052;-75
2024/01/31 02:03:36;;;;;;;2.25;1.08;;;;;;;;;;10171137;29;20099;-75
2024/01/31 02:08:40;;;;;;;1.55;0.90;;;;;;;;;;10159245;29;20076;-75
2024/01/31 02:13:44;;;;;;;1.15;0.95;;;;;;;;;;10160203;29;20048;-75
2024/01/31 02:18:48;;;;;;;1.85;1.20;;;;;;;;;;10156667;29;20056;-75
2024/01/31 02:23:53;;;;;;;1.40;0.90;;;;;;;;;;10154986;29;20519;-75
2024/01/31 02:28:56;;;;;;;2.13;1.08;;;;;;;;;;10162690;29;20052;-75
2024/01/31 02:34:00;;;;;;;0.95;0.88;;;;;;;;;;10161965;29;20127;-75
2024/01/31 02:39:05;;;;;;;3.03;1.10;;;;;;;;;;10163089;29;20062;-75
2024/01/31 02:44:08;;;;;;;1.63;1.10;;;;;;;;;;10159929;29;20420;-75
2024/01/31 02:49:11;;;;;;;1.10;0.95;;;;;;;;;;10162748;29;20370;-75
2024/01/31 02:54:16;;;;;;;2.15;1.08;;;;;;;;;;10160352;29;20060;-75
2024/01/31 02:59:22;;;;;;;1.92;0.93;;;;;;;;;;10158921;29;20484;-75
2024/01/31 03:04:26;;;;;;;1.42;0.90;;;;;;;;;;10159267;29;20044;-75
2024/01/31 03:09:30;;;;;;;1.05;0.80;;;;;;;;;;10158456;29;20614;-75
2024/01/31 03:14:34;;;;;;;1.05;0.68;;;;;;;;;;10156750;29;20099;-75
2024/01/31 03:19:38;;;;;;;1.08;0.75;;;;;;;;;;10159897;29;20052;-75
2024/01/31 03:24:43;;;;;;;1.23;0.80;;;;;;;;;;10157413;29;20058;-75
2024/01/31 03:29:46;;;;;;;1.10;0.80;;;;;;;;;;10160151;29;20523;-75
2024/01/31 03:34:50;;;;;;;2.67;0.80;;;;;;;;;;10157115;29;20056;-75
2024/01/31 03:39:55;;;;;;;2.08;0.65;;;;;;;;;;10156722;29;20052;-75
2024/01/31 03:44:58;;;;;;;1.08;0.60;;;;;;;;;;10156029;29;20051;-75
2024/01/31 03:50:02;;;;;;;1.40;0.95;;;;;;;;;;10160307;29;20104;-75
2024/01/31 03:55:09;;;;;;;1.90;0.70;;;;;;;;;;10160150;29;20403;-75
2024/01/31 04:00:13;;;;;;;1.40;0.85;;;;;;;;;;10159992;29;20059;-75
2024/01/31 04:05:17;;;;;;;0.70;0.68;;;;;;;;;;10158380;29;20500;-76
2024/01/31 04:10:22;;;;;;;2.10;0.82;;;;;;;;;;10152268;29;20052;-75
2024/01/31 04:15:26;;;;;;;3.47;1.00;;;;;;;;;;10155819;29;20055;-75
2024/01/31 04:20:29;;;;;;;1.38;0.90;;;;;;;;;;10156135;29;20092;-75
2024/01/31 04:25:34;;;;;;;0.70;0.70;;;;;;;;;;10155986;29;20055;-75
2024/01/31 04:30:37;;;;;;;0.95;0.70;;;;;;;;;;10150659;29;20607;-75
2024/01/31 04:35:40;;;;;;;1.38;0.90;;;;;;;;;;10153208;29;20059;-75
2024/01/31 04:40:46;;;;;;;1.23;1.05;;;;;;;;;;10150337;29;20052;-76
2024/01/31 04:45:49;;;;;;;1.10;0.98;;;;;;;;;;10154571;29;20052;-75
2024/01/31 04:50:52;;;;;;;1.27;0.98;;;;;;;;;;10163629;29;20595;-75
2024/01/31 04:55:57;;;;;;;1.25;0.98;;;;;;;;;;10164791;29;20055;-75
2024/01/31 05:01:01;;;;;;;2.55;1.30;;;;;;;;;;10165193;29;20056;-75
2024/01/31 05:06:05;;;;;;;2.17;1.30;;;;;;;;;;10160807;29;20056;-75
2024/01/31 05:11:13;;;;;;;1.20;1.10;;;;;;;;;;10263264;23;20453;-75
2024/01/31 05:16:16;;;;;;;1.50;1.20;;;;;;;;;;10190798;28;20056;-75
2024/01/31 05:21:21;;;;;;;1.42;1.30;;;;;;;;;;10160806;29;20504;-74
2024/01/31 05:26:26;;;;;;;2.03;1.20;;;;;;;;;;10158373;29;20051;-74
2024/01/31 05:31:29;;;;;;;3.60;2.17;;;;;;;;;;10156620;29;20044;-75
2024/01/31 05:36:33;;;;;;;5.05;3.17;;;;;;;;;;10180998;29;20075;-75
2024/01/31 05:41:42;;;;;;;5.03;3.00;;;;;;;;;;10161515;29;20092;-75
2024/01/31 05:46:46;;;;;;;3.80;2.65;;;;;;;;;;10158958;29;20048;-75
2024/01/31 05:51:51;;;;;;;4.05;2.30;;;;;;;;;;10161934;29;20056;-75
2024/01/31 05:56:55;;;;;;;3.58;2.13;;;;;;;;;;10161274;29;20518;-74
2024/01/31 06:01:59;;;;;;;4.55;2.33;;;;;;;;;;10157807;29;20237;-75
2024/01/31 06:07:02;;;;;;;2.60;1.98;;;;;;;;;;10162999;29;20139;-74
2024/01/31 06:12:08;;;;;;;4.68;2.55;;;;;;;;;;10159331;29;20060;-75
2024/01/31 06:17:14;;;;;;;4.57;2.40;;;;;;;;;;10159274;29;20059;-75
2024/01/31 06:22:18;;;;;;;3.38;2.15;;;;;;;;;;10161751;29;20044;-74
2024/01/31 06:27:22;;;;;;;5.18;2.53;;;;;;;;;;10158908;29;20059;-74
2024/01/31 06:32:31;;;;;;;5.32;2.80;;;;;;;;;;10160749;29;20052;-75
2024/01/31 06:37:35;;;;;;;5.55;2.67;;;;;;;;;;10159856;29;20044;-75
2024/01/31 06:42:39;;;;;;;3.17;2.17;;;;;;;;;;10163611;29;20063;-74
2024/01/31 06:47:43;;;;;;;2.20;1.85;;;;;;;;;;10160517;29;20048;-75
2024/01/31 06:52:47;;;;;;;2.58;1.92;;;;;;;;;;10160441;29;20389;-75
2024/01/31 06:57:51;;;;;;;4.45;2.42;;;;;;;;;;10159099;29;20055;-74
2024/01/31 07:02:55;;;;;;;4.55;2.47;;;;;;;;;;10160086;29;20056;-75
2024/01/31 07:07:58;;;;;;;4.03;2.25;;;;;;;;;;10156191;29;20440;-74
2024/01/31 07:13:03;;;;;;;3.60;2.42;;;;;;;;;;10156592;29;20056;-75
2024/01/31 07:18:07;;;;;;;3.95;3.15;;;;;;;;;;10160082;29;20063;-75
2024/01/31 07:23:10;;;;;;;4.50;2.95;;;;;;;;;;10153687;29;20060;-75
2024/01/31 07:28:15;;;;;;;4.72;3.10;;;;;;;;;;10152978;29;20056;-74
2024/01/31 07:33:19;;;;;;;4.30;2.85;;;;;;;;;;10161707;29;20132;-74
2024/01/31 07:38:22;;;;;;;4.88;3.15;;;;;;;;;;10151838;29;20170;-74
2024/01/31 07:43:27;;;;;;;3.50;2.83;;;;;;;;;;10160436;29;20056;-75
2024/01/31 07:48:30;;;;;;;5.18;2.90;;;;;;;;;;10162086;29;20052;-75
2024/01/31 07:53:34;;;;;;;3.90;2.92;;;;;;;;;;10158780;29;20048;-75
2024/01/31 07:58:38;;;;;;;4.70;3.08;;;;;;;;;;10158806;29;20058;-75
2024/01/31 08:03:42;;;;;;;3.78;2.60;;;;;;;;;;10158185;29;20139;-75
2024/01/31 08:08:45;;;;;;;3.92;2.03;;;;;;;;;;10152143;29;20131;-75
2024/01/31 08:13:50;;;;;;;2.80;1.75;;;;;;;;;;10155267;29;20044;-75
2024/01/31 08:18:53;;;;;;;2.92;2.05;;;;;;;;;;10151552;29;20520;-74
2024/01/31 08:23:56;;;;;;;2.42;2.00;;;;;;;;;;10146306;29;20291;-74
2024/01/31 08:29:01;;;;;;;3.58;2.33;;;;;;;;;;10150626;29;20425;-74
2024/01/31 08:34:05;;;;;;;3.93;2.40;;;;;;;;;;10155624;29;20056;-75
2024/01/31 08:39:09;;;;;;;3.30;2.45;;;;;;;;;;10154536;29;20100;-74
2024/01/31 08:44:14;;;;;;;3.22;2.35;;;;;;;;;;10155809;29;20063;-74
2024/01/31 08:49:18;;;;;;;3.63;2.30;;;;;;;;;;10156482;29;20045;-75
2024/01/31 08:54:21;;;;;;;3.45;2.22;;;;;;;;;;10153981;29;20147;-75
2024/01/31 08:59:26;;;;;;;3.95;2.42;;;;;;;;;;10155074;29;20047;-74
2024/01/31 09:04:29;;;;;;;4.03;2.33;;;;;;;;;;10155981;29;20051;-74
2024/01/31 09:09:37;;;;;;;2.90;2.25;;;;;;;;;;10115927;29;1056746;-75
2024/01/31 09:14:42;;;;;;;3.20;2.13;;;;;;;;;;10149489;29;20668;-74
2024/01/31 09:19:45;;;;;;;3.35;2.38;;;;;;;;;;10151515;29;20692;-74
2024/01/31 09:24:49;;;;;;;2.55;1.90;;;;;;;;;;10149704;29;20131;-75
2024/01/31 09:29:53;;;;;;;1.88;1.58;;;;;;;;;;10154185;29;20156;-75
2024/01/31 09:34:57;;;;;;;1.98;1.35;;;;;;;;;;10158969;29;20082;-75
2024/01/31 09:40:00;;;;;;;1.50;1.40;;;;;;;;;;10158603;29;20048;-75
2024/01/31 09:45:06;;;;;;;3.22;2.33;;;;;;;;;;10164469;29;20592;-75
2024/01/31 09:50:09;;;;;;;1.98;1.63;;;;;;;;;;10162573;29;20563;-75
2024/01/31 09:55:14;;;;;;;2.95;2.50;;;;;;;;;;10162964;29;20048;-75
2024/01/31 10:00:20;;;;;;;3.05;2.08;;;;;;;;;;10163549;29;20139;-75
2024/01/31 10:05:23;;;;;;;2.10;1.80;;;;;;;;;;10163166;29;20579;-75
2024/01/31 10:10:27;;;;;;;4.75;2.35;;;;;;;;;;10160307;29;20294;-75
2024/01/31 10:15:32;;;;;;;1.63;1.52;;;;;;;;;;10162512;29;20040;-74
2024/01/31 10:20:35;;;;;;;1.83;1.40;;;;;;;;;;10158875;29;20048;-75
2024/01/31 10:25:38;;;;;;;1.63;1.23;;;;;;;;;;10162048;29;20052;-75
2024/01/31 10:30:45;;;;;;;1.80;1.60;;;;;;;;;;10163631;29;20036;-74
2024/01/31 10:35:49;;;;;;;3.92;2.60;;;;;;;;;;10161564;29;20128;-75
2024/01/31 10:41:09;;;;;;;2.22;1.70;;;;;;;;;;10162360;29;20084;-75
2024/01/31 10:46:14;;;;;;;2.75;1.63;;;;;;;;;;10159252;29;20066;-74
2024/01/31 10:51:18;;;;;;;2.25;1.63;;;;;;;;;;10160019;29;20048;-74
2024/01/31 10:56:24;;;;;;;2.67;2.00;;;;;;;;;;10159104;29;20425;-75
2024/01/31 11:01:31;;;;;;;1.67;1.52;;;;;;;;;;10157374;29;20072;-74
2024/01/31 11:06:40;;;;;;;1.52;1.13;;;;;;;;;;10154201;29;20150;-75
2024/01/31 11:11:44;;;;;;;2.15;1.38;;;;;;;;;;10154477;29;20639;-75
2024/01/31 11:16:48;;;;;;;1.58;1.30;;;;;;;;;;10152120;29;20127;-75
2024/01/31 11:21:52;;;;;;;1.33;1.20;;;;;;;;;;10154196;29;20055;-74
2024/01/31 11:26:55;;;;;;;3.67;2.17;;;;;;;;;;10173262;29;20141;-75
2024/01/31 11:32:01;;;;;;;1.50;1.40;;;;;;;;;;10156806;29;20071;-75
2024/01/31 11:37:05;;;;;;;2.45;1.63;;;;;;;;;;10152658;29;20143;-74
2024/01/31 11:42:08;;;;;;;1.25;1.05;;;;;;;;;;10150277;29;20060;-74
2024/01/31 11:47:15;;;;;;;1.88;1.13;;;;;;;;;;10156479;29;20067;-75
2024/01/31 11:52:19;;;;;;;3.78;1.00;;;;;;;;;;10156044;29;20044;-75
2024/01/31 11:57:22;;;;;;;2.90;1.70;;;;;;;;;;10158444;29;20074;-74
2024/01/31 12:02:27;;;;;;;1.20;1.10;;;;;;;;;;10156833;29;20052;-74
2024/01/31 12:07:30;;;;;;;2.72;1.20;;;;;;;;;;10154436;29;20063;-74
2024/01/31 12:12:41;;;;;;;1.65;1.50;;;;;;;;;;10156710;29;20105;-74
2024/01/31 12:17:46;;;;;;;1.15;1.00;;;;;;;;;;10150829;29;20051;-74
2024/01/31 12:22:49;;;;;;;1.35;1.05;;;;;;;;;;10151840;29;20143;-74
2024/01/31 12:27:52;;;;;;;2.00;1.30;;;;;;;;;;10147418;29;20044;-74
2024/01/31 12:32:57;;;;;;;2.75;1.73;;;;;;;;;;10152283;29;20048;-74
2024/01/31 12:38:00;;;;;;;2.97;1.50;;;;;;;;;;10158005;29;20558;-74
2024/01/31 12:43:04;;;;;;;2.00;1.60;;;;;;;;;;10157865;29;20044;-74
2024/01/31 12:48:09;;;;;;;2.03;1.30;;;;;;;;;;10155568;29;20138;-74
2024/01/31 12:53:12;;;;;;;1.67;1.10;;;;;;;;;;10158665;29;20064;-74
2024/01/31 12:58:16;;;;;;;1.17;1.02;;;;;;;;;;10159376;29;20062;-74
2024/01/31 13:03:20;;;;;;;1.33;0.70;;;;;;;;;;10150243;29;20147;-74
2024/01/31 13:08:24;;;;;;;1.73;0.70;;;;;;;;;;10153746;29;20419;-74
2024/01/31 13:13:27;;;;;;;2.00;0.80;;;;;;;;;;10158034;29;20044;-74
2024/01/31 13:18:32;;;;;;;1.20;0.73;;;;;;;;;;10157306;29;20523;-74
2024/01/31 13:23:38;;;;;;;1.13;0.80;;;;;;;;;;10157569;29;20060;-74
2024/01/31 13:28:42;;;;;;;1.95;1.40;;;;;;;;;;10155233;29;20060;-74
2024/01/31 13:33:46;;;;;;;2.22;0.95;;;;;;;;;;10160212;29;20052;-75
2024/01/31 13:38:50;;;;;;;3.35;0.93;;;;;;;;;;10161485;29;20091;-75
2024/01/31 13:43:53;;;;;;;2.17;1.17;;;;;;;;;;10162186;29;20040;-74
2024/01/31 13:48:58;;;;;;;1.30;0.95;;;;;;;;;;10163133;29;20482;-74
2024/01/31 13:54:01;;;;;;;3.58;1.70;;;;;;;;;;10159955;29;20056;-74
2024/01/31 13:59:05;;;;;;;1.67;1.15;;;;;;;;;;10158542;29;20056;-74
2024/01/31 14:04:09;;;;;;;1.65;1.13;;;;;;;;;;10160988;29;20054;-74
2024/01/31 14:09:12;;;;;;;3.17;1.50;;;;;;;;;;10154984;29;20103;-75
2024/01/31 14:14:16;;;;;;;3.75;1.02;;;;;;;;;;10154923;29;20076;-74
2024/01/31 14:19:20;;;;;;;2.15;0.82;;;;;;;;;;10157010;29;20622;-75
2024/01/31 14:24:24;;;;;;;3.25;1.35;;;;;;;;;;10152491;29;20056;-74
2024/01/31 14:29:28;;;;;;;0.73;0.73;;;;;;;;;;10156795;29;20104;-74
2024/01/31 14:34:33;;;;;;;2.30;0.88;;;;;;;;;;10154868;29;20463;-74
2024/01/31 14:39:36;;;;;;;1.92;1.00;;;;;;;;;;10159900;29;20062;-74
2024/01/31 14:44:40;;;;;;;2.22;1.02;;;;;;;;;;10162033;29;20119;-75
2024/01/31 14:49:44;;;;;;;1.40;0.75;;;;;;;;;;10160989;29;20104;-74
2024/01/31 14:54:48;;;;;;;2.00;1.30;;;;;;;;;;10170687;29;20056;-74
2024/01/31 14:59:51;;;;;;;1.55;0.93;;;;;;;;;;10164932;29;20054;-74
2024/01/31 15:04:56;;;;;;;1.95;1.25;;;;;;;;;;10169571;29;20048;-74
2024/01/31 15:09:59;;;;;;;2.33;1.10;;;;;;;;;;10155318;29;20409;-74
2024/01/31 15:15:04;;;;;;;2.80;1.30;;;;;;;;;;10153521;29;20083;-74
2024/01/31 15:20:10;;;;;;;1.73;1.38;;;;;;;;;;10158180;29;20059;-74
2024/01/31 15:25:14;;;;;;;3.53;1.30;;;;;;;;;;10153797;29;20435;-74
2024/01/31 15:30:18;;;;;;;2.78;1.20;;;;;;;;;;10164079;29;20044;-75
2024/01/31 15:35:22;;;;;;;2.03;1.30;;;;;;;;;;10149777;29;20047;-74
2024/01/31 15:40:26;;;;;;;1.15;0.70;;;;;;;;;;10161260;29;20071;-74
2024/01/31 15:45:29;;;;;;;1.73;1.05;;;;;;;;;;10160419;29;20113;-74
2024/01/31 15:50:34;;;;;;;1.33;1.10;;;;;;;;;;10152503;29;20059;-74
2024/01/31 15:55:38;;;;;;;2.33;1.02;;;;;;;;;;10151964;29;20044;-75
2024/01/31 16:00:41;;;;;;;2.72;1.10;;;;;;;;;;10158446;29;20705;-74
2024/01/31 16:05:46;;;;;;;1.58;1.10;;;;;;;;;;10156788;29;20147;-74
2024/01/31 16:10:49;;;;;;;2.20;1.00;;;;;;;;;;10148004;29;20059;-75
2024/01/31 16:15:53;;;;;;;1.52;1.15;;;;;;;;;;10156040;29;20543;-74
2024/01/31 16:20:58;;;;;;;0.98;0.82;;;;;;;;;;10155095;29;20551;-75
2024/01/31 16:26:02;;;;;;;1.38;1.00;;;;;;;;;;10153001;29;20052;-75
2024/01/31 16:31:05;;;;;;;1.38;0.95;;;;;;;;;;10151911;29;20131;-74
2024/01/31 16:36:18;;;;;;;2.28;0.98;;;;;;;;;;10153552;29;20052;-74
2024/01/31 16:41:23;;;;;;;3.58;1.75;;;;;;;;;;10152174;29;20080;-74
2024/01/31 16:46:26;;;;;;;3.05;1.80;;;;;;;;;;10170348;29;20150;-74
2024/01/31 16:51:31;;;;;;;5.82;2.70;;;;;;;;;;10160757;29;20056;-74
2024/01/31 16:56:34;;;;;;;6.35;3.63;;;;;;;;;;10160076;29;20130;-75
2024/01/31 17:01:38;;;;;;;5.22;3.65;;;;;;;;;;10164288;29;20052;-74
2024/01/31 17:06:42;;;;;;;3.95;2.60;;;;;;;;;;10164704;29;20504;-74
2024/01/31 17:11:46;;;;;;;5.43;2.85;;;;;;;;;;10156983;29;20054;-74
2024/01/31 17:16:49;;;;;;;4.90;2.65;;;;;;;;;;10155128;29;20611;-74
2024/01/31 17:21:54;;;;;;;4.72;2.67;;;;;;;;;;10162943;29;20047;-74
2024/01/31 17:26:57;;;;;;;4.43;3.13;;;;;;;;;;10164085;29;20534;-75
2024/01/31 17:32:00;;;;;;;4.68;2.72;;;;;;;;;;10157230;29;20127;-74
2024/01/31 17:37:05;;;;;;;5.00;2.70;;;;;;;;;;10153603;29;20083;-74
2024/01/31 17:42:08;;;;;;;3.88;2.20;;;;;;;;;;10156143;29;20052;-74
2024/01/31 17:47:12;;;;;;;4.90;2.10;;;;;;;;;;10162592;29;20052;-74
2024/01/31 17:52:16;;;;;;;3.22;1.92;;;;;;;;;;10164848;29;20059;-74
2024/01/31 17:57:20;;;;;;;2.13;1.70;;;;;;;;;;10164603;29;20055;-74
2024/01/31 18:02:23;;;;;;;3.58;2.10;;;;;;;;;;10164806;29;20080;-74
2024/01/31 18:07:28;;;;;;;2.63;2.10;;;;;;;;;;10161291;29;20107;-74
2024/01/31 18:12:31;;;;;;;4.85;3.08;;;;;;;;;;10155263;29;20080;-74
2024/01/31 18:17:35;;;;;;;6.95;3.42;;;;;;;;;;10152788;29;20391;-74
2024/01/31 18:22:39;;;;;;;6.97;4.20;;;;;;;;;;10161839;29;20044;-74
2024/01/31 18:27:45;;;;;;;6.45;3.95;;;;;;;;;;10160095;29;20414;-74
2024/01/31 18:32:48;;;;;;;7.50;4.17;;;;;;;;;;10160121;29;20151;-74
2024/01/31 18:37:53;;;;;;;6.95;3.35;;;;;;;;;;10155179;29;20123;-75
2024/01/31 18:42:56;;;;;;;6.82;3.45;;;;;;;;;;10160079;29;20076;-74
2024/01/31 18:48:00;;;;;;;6.35;3.80;;;;;;;;;;10161526;29;20052;-74
2024/01/31 18:53:05;;;;;;;10.68;5.28;;;;;;;;;;10160068;29;20143;-75
2024/01/31 18:58:08;;;;;;;15.07;8.07;;;;;;;;;;10164179;29;20643;-74
2024/01/31 19:03:13;;;;;;;16.92;8.93;;;;;;;;;;10162697;29;20056;-80
2024/01/31 19:08:18;;;;;;;12.93;7.70;;;;;;;;;;10152645;29;20063;-74
2024/01/31 19:13:22;;;;;;;12.97;7.17;;;;;;;;;;10162486;29;20471;-75
2024/01/31 19:18:25;;;;;;;11.50;7.28;;;;;;;;;;10158999;29;20136;-75
2024/01/31 19:23:30;;;;;;;11.15;6.43;;;;;;;;;;10154947;29;20257;-75
2024/01/31 19:28:33;;;;;;;12.20;6.10;;;;;;;;;;10155867;29;20070;-75
2024/01/31 19:33:37;;;;;;;5.97;3.53;;;;;;;;;;10158548;29;20048;-74
2024/01/31 19:38:42;;;;;;;4.53;2.50;;;;;;;;;;10159110;29;20051;-75
2024/01/31 19:43:46;;;;;;;3.35;2.13;;;;;;;;;;10154301;29;20044;-75
2024/01/31 19:48:50;;;;;;;2.42;1.45;;;;;;;;;;10162362;29;20047;-75
2024/01/31 19:53:54;;;;;;;2.05;1.52;;;;;;;;;;10163932;29;20110;-75
2024/01/31 19:58:58;;;;;;;3.80;1.70;;;;;;;;;;10159836;29;20044;-75
2024/01/31 20:04:01;;;;;;;1.58;1.27;;;;;;;;;;10153243;29;20582;-75
2024/01/31 20:09:07;;;;;;;3.25;1.75;;;;;;;;;;10158759;29;20444;-75
2024/01/31 20:14:10;;;;;;;3.50;2.20;;;;;;;;;;10159435;29;20059;-75
2024/01/31 20:19:13;;;;;;;5.50;2.45;;;;;;;;;;10158300;29;20067;-75
2024/01/31 20:24:18;;;;;;;2.47;2.20;;;;;;;;;;10153800;29;20068;-75
2024/01/31 20:29:40;;;;;;;2.30;1.63;;;;;;;;;;10160167;29;20052;-75
2024/01/31 20:35:10;;;;;;;3.70;2.07;;;;;;;;;;10156534;29;20040;-75
2024/01/31 20:40:19;;;;;;;3.63;2.17;;;;;;;;;;10155322;29;20055;-75
2024/01/31 20:45:34;;;;;;;4.85;2.30;;;;;;;;;;10152771;29;20067;-75
2024/01/31 20:50:39;;;;;;;6.22;3.47;;;;;;;;;;10158203;29;20072;-75
2024/01/31 20:56:00;;;;;;;21.67;9.82;;;;;;;;;;10159677;29;20052;-75
2024/01/31 21:01:07;;;;;;;21.13;10.85;;;;;;;;;;10156928;29;20059;-75
2024/01/31 21:06:11;;;;;;;17.75;9.52;;;;;;;;;;10164006;29;20049;-75
2024/01/31 21:11:16;;;;;;;11.30;5.78;;;;;;;;;;10153235;29;20060;-75
2024/01/31 21:16:20;;;;;;;7.60;4.07;;;;;;;;;;10160215;29;20571;-75
2024/01/31 21:21:23;;;;;;;3.75;2.50;;;;;;;;;;10157697;29;20056;-74
2024/01/31 21:26:27;;;;;;;3.55;2.20;;;;;;;;;;10158138;29;20123;-75
2024/01/31 21:31:31;;;;;;;4.00;2.67;;;;;;;;;;10165531;29;20051;-75
2024/01/31 21:36:36;;;;;;;2.70;1.77;;;;;;;;;;10158171;29;20084;-75
2024/01/31 21:41:42;;;;;;;3.93;1.90;;;;;;;;;;10164477;29;20064;-75
2024/01/31 21:46:47;;;;;;;2.38;1.70;;;;;;;;;;10165875;29;20045;-75
2024/01/31 21:51:50;;;;;;;3.08;1.55;;;;;;;;;;10168584;29;20068;-75
2024/01/31 21:56:55;;;;;;;2.38;1.70;;;;;;;;;;10165071;29;20056;-75
2024/01/31 22:01:58;;;;;;;3.67;2.40;;;;;;;;;;10165381;29;20520;-75
2024/01/31 22:07:02;;;;;;;2.72;1.77;;;;;;;;;;10165026;29;20484;-75
2024/01/31 22:12:07;;;;;;;3.38;1.92;;;;;;;;;;10156911;29;20427;-75
2024/01/31 22:17:10;;;;;;;3.08;2.28;;;;;;;;;;10160236;29;20071;-74
2024/01/31 22:22:14;;;;;;;5.88;3.40;;;;;;;;;;10156221;29;20405;-75
2024/01/31 22:27:18;;;;;;;3.75;2.88;;;;;;;;;;10162243;29;20050;-75
2024/01/31 22:32:22;;;;;;;6.32;3.20;;;;;;;;;;10160231;29;20071;-75
2024/01/31 22:37:25;;;;;;;6.43;2.42;;;;;;;;;;10165494;29;20054;-75
2024/01/31 22:42:29;;;;;;;8.27;3.72;;;;;;;;;;10167486;29;20140;-75
2024/01/31 22:47:33;;;;;;;4.57;2.60;;;;;;;;;;10159815;29;20054;-75
2024/01/31 22:52:37;;;;;;;3.70;2.60;;;;;;;;;;10164169;29;20492;-75
2024/01/31 22:57:42;;;;;;;4.35;2.80;;;;;;;;;;10162633;29;20044;-75
2024/01/31 23:02:46;;;;;;;4.53;2.58;;;;;;;;;;10159108;29;20044;-75
2024/01/31 23:07:49;;;;;;;3.40;2.60;;;;;;;;;;10155614;29;20041;-75
2024/01/31 23:12:56;;;;;;;4.95;3.75;;;;;;;;;;10179685;23;20048;-76
2024/01/31 23:18:03;;;;;;;3.67;2.42;;;;;;;;;;10158317;29;20143;-76
2024/01/31 23:23:07;;;;;;;6.35;3.10;;;;;;;;;;10158919;29;20377;-76
2024/01/31 23:28:12;;;;;;;3.78;2.55;;;;;;;;;;10160601;29;20048;-76
2024/01/31 23:33:15;;;;;;;5.63;3.00;;;;;;;;;;10159422;29;20062;-77
2024/01/31 23:38:19;;;;;;;5.45;3.13;;;;;;;;;;10162689;29;20115;-77
2024/01/31 23:43:24;;;;;;;5.00;2.97;;;;;;;;;;10165113;29;20423;-77
2024/01/31 23:48:27;;;;;;;5.10;3.07;;;;;;;;;;10166613;29;20135;-75
2024/01/31 23:53:31;;;;;;;5.00;2.47;;;;;;;;;;10163476;29;20052;-75
2024/01/31 23:58:36;;;;;;;5.18;2.90;;;;;;;;;;10159550;29;20040;-75
